Time;durP1;ratioP1;P1;durP2;ratioP2;P2;SDS_P1;SDS_P2;PMS_P1;PMS_P2;Temp;Humidity;BMP_temperature;BMP_pressure;BME280_temperature;BME280_humidity;BME280_pressure;Samples;Min_cycle;Max_cycle;Signal;HPM_P1;HPM_P2
2024/02/27 00:02:51;;;;;;;1999.90;999.90;;;;;;;10.46;100.00;94626.97;10372965;28;20107;-75
2024/02/27 00:07:52;;;;;;;1999.90;999.90;;;;;;;10.56;100.00;94626.13;10372944;28;20029;-75
2024/02/27 00:12:53;;;;;;;1999.90;999.90;;;;;;;10.47;100.00;94627.81;10371741;28;20071;-76
2024/02/27 00:17:53;;;;;;;1999.90;999.90;;;;;;;10.46;100.00;94626.19;10372531;28;20489;-76
2024/02/27 00:22:54;;;;;;;1999.90;999.90;;;;;;;10.42;100.00;94637.50;10372525;28;20268;-76
2024/02/27 00:27:54;;;;;;;1999.90;999.90;;;;;;;10.41;100.00;94625.13;10373567;28;20288;-75
2024/02/27 00:32:55;;;;;;;1999.90;999.90;;;;;;;10.51;100.00;94635.03;10371697;28;20415;-75
2024/02/27 00:37:56;;;;;;;1999.90;999.90;;;;;;;10.57;100.00;94633.13;10372866;28;20624;-75
2024/02/27 00:42:56;;;;;;;1999.90;999.90;;;;;;;10.53;100.00;94632.06;10371544;28;20460;-75
2024/02/27 00:47:57;;;;;;;1999.90;999.90;;;;;;;10.61;100.00;94634.19;10371035;28;20021;-75
2024/02/27 00:52:57;;;;;;;1999.90;999.90;;;;;;;10.65;100.00;94624.50;10372544;28;20272;-75
2024/02/27 00:58:02;;;;;;;1999.90;999.90;;;;;;;10.65;100.00;94624.50;10370734;28;20334;-76
2024/02/27 01:03:03;;;;;;;1999.90;999.90;;;;;;;10.62;100.00;94618.84;10370405;28;20115;-75
2024/02/27 01:08:03;;;;;;;1999.90;999.90;;;;;;;10.54;100.00;94621.03;10371083;28;20049;-75
2024/02/27 01:13:04;;;;;;;1999.90;999.90;;;;;;;10.54;100.00;94622.94;10370294;28;20032;-75
2024/02/27 01:18:04;;;;;;;1999.90;999.90;;;;;;;10.59;100.00;94620.19;10370121;28;20161;-75
2024/02/27 01:23:05;;;;;;;1999.90;999.90;;;;;;;10.58;100.00;94619.41;10370840;28;20280;-75
2024/02/27 01:28:06;;;;;;;1999.90;999.90;;;;;;;10.52;100.00;94612.47;10354260;28;20025;-76
2024/02/27 01:33:06;;;;;;;1999.90;999.90;;;;;;;10.48;100.00;94618.66;10369318;28;20064;-75
2024/02/27 01:38:06;;;;;;;1999.90;999.90;;;;;;;10.45;100.00;94627.25;10352790;28;20271;-76
2024/02/27 01:43:33;;;;;;;1999.90;999.90;;;;;;;10.45;100.00;94611.13;10369581;28;20033;-75
2024/02/27 01:48:34;;;;;;;1999.90;999.90;;;;;;;10.15;100.00;94604.78;10366232;28;20292;-75
2024/02/27 01:53:35;;;;;;;1999.90;999.90;;;;;;;10.14;100.00;94603.16;10369905;28;20087;-76
2024/02/27 01:58:36;;;;;;;1999.90;999.90;;;;;;;10.03;100.00;94600.53;10369373;28;20128;-77
2024/02/27 02:03:38;;;;;;;1999.90;999.90;;;;;;;10.16;100.00;94601.81;10369015;28;20033;-76
2024/02/27 02:08:39;;;;;;;1999.90;999.90;;;;;;;10.23;100.00;94606.91;10368985;28;20480;-75
2024/02/27 02:13:39;;;;;;;1999.90;999.90;;;;;;;10.30;100.00;94607.41;10374823;28;20095;-75
2024/02/27 02:18:40;;;;;;;1999.90;999.90;;;;;;;10.31;100.00;94603.66;10377492;28;20527;-76
2024/02/27 02:23:43;;;;;;;1999.90;999.90;;;;;;;10.37;100.00;94609.84;10376998;28;20033;-76
2024/02/27 02:28:43;;;;;;;1999.90;999.90;;;;;;;10.34;100.00;94621.09;10379416;28;20021;-77
2024/02/27 02:33:44;;;;;;;1999.90;999.90;;;;;;;10.38;100.00;94614.94;10376504;28;20033;-76
2024/02/27 02:38:44;;;;;;;1999.90;999.90;;;;;;;10.42;100.00;94609.81;10376502;28;20025;-75
2024/02/27 02:43:44;;;;;;;1999.90;999.90;;;;;;;10.29;100.00;94618.44;10359567;28;20447;-75
2024/02/27 02:48:45;;;;;;;1999.90;999.90;;;;;;;10.29;100.00;94619.22;10358052;28;20037;-75
2024/02/27 02:53:46;;;;;;;1999.90;999.90;;;;;;;10.25;100.00;94623.53;10375488;28;20271;-75
2024/02/27 02:58:47;;;;;;;1999.90;999.90;;;;;;;10.18;100.00;94625.72;10358586;28;20228;-75
2024/02/27 03:03:47;;;;;;;1999.90;999.90;;;;;;;10.20;100.00;94635.09;10374745;28;20075;-74
2024/02/27 03:08:48;;;;;;;1999.90;999.90;;;;;;;10.25;100.00;94632.38;10375178;28;20072;-75
2024/02/27 03:13:48;;;;;;;1999.90;999.90;;;;;;;10.23;100.00;94631.06;10375538;28;20264;-75
2024/02/27 03:18:48;;;;;;;1999.90;999.90;;;;;;;10.21;100.00;94638.59;10375176;28;20100;-74
2024/02/27 03:23:49;;;;;;;1999.90;999.90;;;;;;;10.20;100.00;94642.34;10374606;28;20286;-75
2024/02/27 03:28:49;;;;;;;1999.90;999.90;;;;;;;10.18;100.00;94647.19;10360926;28;20272;-74
2024/02/27 03:33:49;;;;;;;1999.90;999.90;;;;;;;10.13;100.00;94644.50;10373791;28;20330;-74
2024/02/27 03:38:50;;;;;;;1999.90;999.90;;;;;;;10.11;100.00;94646.69;10374258;28;20099;-75
2024/02/27 03:43:50;;;;;;;1999.90;999.90;;;;;;;9.95;100.00;94649.41;10373976;28;20355;-74
2024/02/27 03:48:51;;;;;;;1999.90;999.90;;;;;;;9.98;100.00;94656.91;10373306;28;20291;-76
2024/02/27 03:53:51;;;;;;;1999.90;999.90;;;;;;;9.98;100.00;94653.44;10350718;28;20655;-75
2024/02/27 03:58:51;;;;;;;1999.90;999.90;;;;;;;9.96;100.00;94659.03;10351156;28;20647;-75
2024/02/27 04:03:52;;;;;;;1999.90;999.90;;;;;;;9.97;100.00;94657.97;10364172;28;20296;-77
2024/02/27 04:08:52;;;;;;;1999.90;999.90;;;;;;;9.92;100.00;94661.47;10370071;28;20480;-77
2024/02/27 04:13:53;;;;;;;1999.90;999.90;;;;;;;9.97;100.00;94654.50;10359171;28;20100;-76
2024/02/27 04:18:55;;;;;;;1999.90;999.90;;;;;;;9.98;100.00;94654.22;10445335;23;20648;-84
2024/02/27 04:23:56;;;;;;;1999.90;999.90;;;;;;;10.00;100.00;94657.41;10465226;28;20041;-79
2024/02/27 04:28:58;;;;;;;1999.90;999.90;;;;;;;10.05;100.00;94670.84;10444007;28;20050;-80
2024/02/27 04:33:58;;;;;;;1999.90;999.90;;;;;;;9.97;100.00;94671.41;10439706;28;20025;-83
2024/02/27 04:38:58;;;;;;;1999.90;999.90;;;;;;;9.84;100.00;94680.00;10446204;28;20025;-79
2024/02/27 04:43:59;;;;;;;1999.90;999.90;;;;;;;9.61;100.00;94684.03;10427741;28;20372;-78
2024/02/27 04:49:00;;;;;;;1999.90;999.90;;;;;;;9.40;100.00;94690.19;10443220;28;20064;-78
2024/02/27 04:54:01;;;;;;;1999.90;999.90;;;;;;;9.26;100.00;94697.13;10461158;28;20787;-82
2024/02/27 04:59:01;;;;;;;1999.90;999.90;;;;;;;9.18;100.00;94706.53;10440947;28;20063;-79
2024/02/27 05:04:04;;;;;;;1999.90;999.90;;;;;;;9.17;100.00;94715.63;10457283;28;20021;-78
2024/02/27 05:09:05;;;;;;;1999.90;999.90;;;;;;;9.03;100.00;94711.84;10430004;28;20377;-77
2024/02/27 05:14:06;;;;;;;1999.90;999.90;;;;;;;9.03;100.00;94718.00;10472592;28;20024;-79
2024/02/27 05:19:06;;;;;;;1999.90;999.90;;;;;;;8.95;100.00;94731.91;10462480;28;20052;-82
2024/02/27 05:24:06;;;;;;;1999.90;999.90;;;;;;;8.88;100.00;94734.81;10485696;28;20044;-78
2024/02/27 05:29:07;;;;;;;1999.90;999.90;;;;;;;8.84;100.00;94741.78;10512498;28;20036;-77
2024/02/27 05:34:07;;;;;;;1999.90;999.90;;;;;;;9.13;100.00;94737.88;10513728;28;20023;-82
2024/02/27 05:39:08;;;;;;;1999.90;999.90;;;;;;;9.27;100.00;94740.88;10493501;28;20274;-77
2024/02/27 05:44:09;;;;;;;1999.90;999.90;;;;;;;9.19;100.00;94758.25;10494872;28;20025;-81
2024/02/27 05:49:09;;;;;;;1999.90;999.90;;;;;;;9.19;100.00;94760.94;10510019;28;20051;-77
2024/02/27 05:54:10;;;;;;;1999.90;999.90;;;;;;;9.25;100.00;94762.56;10489797;28;20024;-76
2024/02/27 05:59:10;;;;;;;1999.90;999.90;;;;;;;9.33;100.00;94767.41;10493617;28;20039;-84
2024/02/27 06:04:11;;;;;;;1999.90;999.90;;;;;;;9.55;100.00;94774.44;10520122;28;20030;-77
2024/02/27 06:09:12;;;;;;;1999.90;999.90;;;;;;;9.48;100.00;94773.91;10511097;28;20058;-77
2024/02/27 06:14:13;;;;;;;1999.90;999.90;;;;;;;9.68;100.00;94783.84;10508851;28;20799;-78
2024/02/27 06:19:13;;;;;;;1999.90;999.90;;;;;;;9.81;100.00;94777.97;10490028;28;20044;-77
2024/02/27 06:24:14;;;;;;;1999.90;999.90;;;;;;;9.79;100.00;94785.47;10493053;28;20461;-76
2024/02/27 06:29:14;;;;;;;1999.90;999.90;;;;;;;9.98;100.00;94804.56;10508831;28;20040;-77
2024/02/27 06:34:14;;;;;;;1999.90;999.90;;;;;;;11.08;100.00;94799.63;10492960;28;20410;-82
2024/02/27 06:39:15;;;;;;;1999.90;999.90;;;;;;;12.44;100.00;94793.16;10493554;28;20799;-79
2024/02/27 06:44:19;;;;;;;1999.90;999.90;;;;;;;14.04;100.00;94791.28;10488936;28;20697;-76
2024/02/27 06:49:19;;;;;;;1999.90;999.90;;;;;;;15.41;100.00;94802.72;10486909;28;20250;-76
2024/02/27 06:54:20;;;;;;;1999.90;999.90;;;;;;;16.35;90.07;94802.31;10489717;28;20152;-76
2024/02/27 06:59:20;;;;;;;1999.90;999.90;;;;;;;17.68;79.56;94808.09;10481275;28;20286;-78
2024/02/27 07:04:21;;;;;;;1999.90;999.90;;;;;;;18.01;73.84;94813.94;10507796;28;20031;-76
2024/02/27 07:09:21;;;;;;;1999.90;999.90;;;;;;;16.99;78.72;94809.44;10518749;28;20035;-77
2024/02/27 07:14:21;;;;;;;1999.90;999.90;;;;;;;17.19;80.26;94818.94;10499293;28;20467;-78
2024/02/27 07:19:22;;;;;;;1999.90;999.90;;;;;;;17.57;79.63;94821.97;10517369;28;20662;-76
2024/02/27 07:24:23;;;;;;;1999.90;999.90;;;;;;;16.81;80.99;94830.25;10498348;28;20235;-76
2024/02/27 07:29:23;;;;;;;1999.90;999.90;;;;;;;17.02;82.45;94828.66;10498793;28;20285;-76
2024/02/27 07:34:23;;;;;;;1999.90;999.90;;;;;;;17.37;78.22;94833.41;10497815;28;20437;-76
2024/02/27 07:39:24;;;;;;;1999.90;999.90;;;;;;;18.01;71.85;94821.28;10498122;28;20031;-78
2024/02/27 07:44:24;;;;;;;1999.90;999.90;;;;;;;18.78;62.89;94819.69;10516970;28;20028;-76
2024/02/27 07:49:25;;;;;;;1999.90;999.90;;;;;;;19.04;61.55;94815.31;10497320;28;21152;-76
2024/02/27 07:54:28;;;;;;;1999.90;999.90;;;;;;;19.63;59.57;94814.59;10497131;28;20923;-77
2024/02/27 07:59:28;;;;;;;1999.90;999.90;;;;;;;19.16;60.80;94812.72;10488793;28;20029;-78
2024/02/27 08:04:28;;;;;;;1999.90;999.90;;;;;;;19.33;59.21;94811.06;10464202;28;20085;-77
2024/02/27 08:09:29;;;;;;;1999.90;999.90;;;;;;;19.18;55.65;94810.47;10512742;28;20023;-76
2024/02/27 08:14:30;;;;;;;1999.90;999.90;;;;;;;18.44;60.27;94813.13;10497373;28;20020;-77
2024/02/27 08:19:30;;;;;;;1999.90;999.90;;;;;;;17.70;66.72;94811.31;10496614;28;20055;-76
2024/02/27 08:24:32;;;;;;;1999.90;999.90;;;;;;;17.85;63.67;94812.78;10496381;28;20023;-78
2024/02/27 08:29:32;;;;;;;1999.90;999.90;;;;;;;18.60;57.68;94818.91;10515125;28;20051;-76
2024/02/27 08:34:32;;;;;;;1999.90;999.90;;;;;;;19.03;54.82;94811.78;10495314;28;20023;-78
2024/02/27 08:39:33;;;;;;;1999.90;999.90;;;;;;;18.85;59.23;94815.66;10495514;28;20341;-82
2024/02/27 08:44:33;;;;;;;1999.90;999.90;;;;;;;19.30;55.32;94810.56;10496365;28;20085;-78
2024/02/27 08:49:33;;;;;;;1999.90;999.90;;;;;;;19.42;52.62;94819.97;10494248;28;20032;-76
2024/02/27 08:54:34;;;;;;;1999.90;999.90;;;;;;;19.55;54.35;94818.16;10441177;23;20230;-78
2024/02/27 08:59:34;;;;;;;1999.90;999.90;;;;;;;20.44;48.09;94822.75;10415995;28;20817;-81
2024/02/27 09:04:35;;;;;;;1999.90;999.90;;;;;;;20.78;48.61;94818.16;10421535;28;20191;-76
2024/02/27 09:09:36;;;;;;;1999.90;999.90;;;;;;;21.05;45.75;94805.81;10403188;28;20033;-77
2024/02/27 09:14:37;;;;;;;1999.90;999.90;;;;;;;19.95;48.13;94812.34;10402335;28;20477;-77
2024/02/27 09:19:37;;;;;;;1999.90;999.90;;;;;;;19.32;49.80;94814.91;10399876;28;20035;-77
2024/02/27 09:24:38;;;;;;;1999.90;999.90;;;;;;;18.90;50.63;94810.84;10393507;28;20029;-77
2024/02/27 09:29:38;;;;;;;1999.90;999.90;;;;;;;19.24;51.11;94814.63;10397732;28;20403;-78
2024/02/27 09:34:41;;;;;;;1999.90;999.90;;;;;;;19.50;51.47;94805.53;10391448;28;20087;-77
2024/02/27 09:39:41;;;;;;;1999.90;999.90;;;;;;;19.71;48.50;94810.22;10385554;28;20035;-78
2024/02/27 09:44:46;;;;;;;1999.90;999.90;;;;;;;20.14;45.15;94798.25;10406689;28;20036;-76
2024/02/27 09:49:50;;;;;;;1999.90;999.90;;;;;;;20.73;45.20;94794.56;10391054;28;20032;-78
2024/02/27 09:54:51;;;;;;;1999.90;999.90;;;;;;;20.99;42.27;94794.28;10386100;28;20055;-77
2024/02/27 09:59:52;;;;;;;1999.90;999.90;;;;;;;21.30;42.27;94795.72;10408056;28;20021;-77
2024/02/27 10:04:56;;;;;;;1999.90;999.90;;;;;;;21.32;40.62;94793.44;10364531;28;20440;-77
2024/02/27 10:09:56;;;;;;;1999.90;999.90;;;;;;;21.80;40.76;94791.06;10368713;28;20479;-78
2024/02/27 10:14:57;;;;;;;1999.90;999.90;;;;;;;22.61;36.88;94779.38;10407426;28;20029;-78
2024/02/27 10:19:59;;;;;;;1999.90;999.90;;;;;;;23.24;34.97;94775.16;10380026;28;20108;-77
2024/02/27 10:25:14;;;;;;;1999.90;999.90;;;;;;;25.71;31.52;94764.09;10358480;28;20033;-77
2024/02/27 10:30:17;;;;;;;1999.90;999.90;;;;;;;27.27;29.75;94755.81;10394986;28;20426;-77
2024/02/27 10:35:17;;;;;;;1999.90;999.90;;;;;;;29.72;27.01;94751.38;10394479;28;20025;-77
2024/02/27 10:40:19;;;;;;;1999.90;999.90;;;;;;;30.33;25.16;94744.97;10421995;28;20064;-77
2024/02/27 10:45:19;;;;;;;1999.90;999.90;;;;;;;31.26;24.60;94740.19;10401979;28;20040;-79
2024/02/27 10:50:21;;;;;;;1999.90;999.90;;;;;;;31.34;24.63;94738.94;10394501;28;20024;-78
2024/02/27 10:55:23;;;;;;;1999.90;999.90;;;;;;;31.74;23.84;94727.56;10402200;28;20053;-81
2024/02/27 11:00:25;;;;;;;1999.90;999.90;;;;;;;31.35;23.80;94723.88;10393543;28;20052;-77
2024/02/27 11:05:26;;;;;;;1999.90;999.90;;;;;;;30.89;25.77;94716.63;10384707;28;20032;-77
2024/02/27 11:10:30;;;;;;;1999.90;999.90;;;;;;;30.95;23.56;94717.75;10394474;28;20029;-77
2024/02/27 11:15:32;;;;;;;1999.90;999.90;;;;;;;28.57;26.23;94724.31;10399290;28;20405;-77
2024/02/27 11:20:32;;;;;;;1999.90;999.90;;;;;;;26.77;28.31;94723.78;10417025;28;20122;-78
2024/02/27 11:25:33;;;;;;;1999.90;999.90;;;;;;;25.29;29.80;94715.47;10395350;28;20074;-77
2024/02/27 11:30:36;;;;;;;1999.90;999.90;;;;;;;23.91;31.88;94718.72;10383614;28;20202;-78
2024/02/27 11:35:37;;;;;;;1999.90;999.90;;;;;;;22.19;33.96;94719.50;10388550;28;20017;-78
2024/02/27 11:40:52;;;;;;;1999.90;999.90;;;;;;;21.51;37.62;94723.72;10398609;28;20040;-78
2024/02/27 11:45:58;;;;;;;1999.90;999.90;;;;;;;21.09;37.13;94723.97;10374832;28;20053;-77
2024/02/27 11:50:59;;;;;;;1999.90;999.90;;;;;;;20.48;39.87;94728.94;10394138;28;20052;-76
2024/02/27 11:55:59;;;;;;;1999.90;999.90;;;;;;;20.16;39.82;94735.97;10402354;28;20040;-77
2024/02/27 12:01:00;;;;;;;1999.90;999.90;;;;;;;19.70;40.47;94729.56;10356472;28;20279;-77
2024/02/27 12:06:03;;;;;;;1999.90;999.90;;;;;;;19.66;41.91;94728.63;10399201;28;20095;-77
2024/02/27 12:11:06;;;;;;;1999.90;999.90;;;;;;;19.56;42.67;94733.31;10406934;28;20837;-77
2024/02/27 12:16:06;;;;;;;1999.90;999.90;;;;;;;19.46;41.48;94723.59;10398428;28;20079;-78
2024/02/27 12:21:07;;;;;;;1999.90;999.90;;;;;;;19.38;40.50;94729.09;10374883;28;20090;-81
2024/02/27 12:26:07;;;;;;;1999.90;999.90;;;;;;;19.21;40.90;94733.50;10395451;28;20032;-79
2024/02/27 12:31:08;;;;;;;1999.90;999.90;;;;;;;19.24;40.74;94713.81;10399424;28;20083;-77
2024/02/27 12:36:08;;;;;;;1999.90;999.90;;;;;;;19.36;40.69;94723.19;10391061;28;20699;-78
2024/02/27 12:41:08;;;;;;;1999.90;999.90;;;;;;;19.29;41.06;94724.50;10415806;28;20040;-78
2024/02/27 12:46:09;;;;;;;1999.90;999.90;;;;;;;19.32;41.28;94722.25;10391003;28;21178;-78
2024/02/27 12:51:11;;;;;;;1999.90;999.90;;;;;;;19.06;42.23;94731.34;10393939;28;20049;-76
2024/02/27 12:56:12;;;;;;;1999.90;999.90;;;;;;;18.74;42.45;94725.34;10385095;28;20075;-78
2024/02/27 13:01:13;;;;;;;1999.90;999.90;;;;;;;18.87;42.17;94726.28;10370303;28;20047;-78
2024/02/27 13:06:13;;;;;;;1999.90;999.90;;;;;;;19.14;42.05;94722.34;10379260;28;20083;-78
2024/02/27 13:11:14;;;;;;;1999.90;999.90;;;;;;;18.82;41.66;94716.34;10395989;28;20541;-77
2024/02/27 13:16:16;;;;;;;1999.90;999.90;;;;;;;18.87;41.41;94708.03;10395984;28;20033;-78
2024/02/27 13:21:19;;;;;;;1999.90;999.90;;;;;;;18.78;42.13;94708.03;10410454;28;20279;-77
2024/02/27 13:26:19;;;;;;;1999.90;999.90;;;;;;;18.85;42.22;94702.09;10383767;28;20021;-76
2024/02/27 13:31:20;;;;;;;1999.90;999.90;;;;;;;18.56;42.44;94700.91;10404549;28;20036;-76
2024/02/27 13:36:20;;;;;;;1999.90;999.90;;;;;;;18.40;42.91;94697.88;10410324;28;20025;-76
2024/02/27 13:41:22;;;;;;;1999.90;999.90;;;;;;;18.24;43.76;94700.34;10393055;28;20032;-76
2024/02/27 13:46:23;;;;;;;1999.90;999.90;;;;;;;18.33;44.13;94694.09;10390466;28;20304;-76
2024/02/27 13:51:23;;;;;;;1999.90;999.90;;;;;;;18.20;43.75;94685.78;10388299;28;20287;-77
2024/02/27 13:56:24;;;;;;;1999.90;999.90;;;;;;;18.30;44.31;94681.13;10418292;28;20028;-78
2024/02/27 14:01:24;;;;;;;1999.90;999.90;;;;;;;18.25;44.10;94688.34;10377161;28;20499;-77
2024/02/27 14:06:24;;;;;;;1999.90;999.90;;;;;;;18.24;44.24;94685.94;10380114;28;20041;-78
2024/02/27 14:11:25;;;;;;;1999.90;999.90;;;;;;;18.26;44.41;94694.56;10426533;28;20599;-76
2024/02/27 14:16:26;;;;;;;1999.90;999.90;;;;;;;17.96;44.83;94685.47;10393566;28;20032;-78
2024/02/27 14:21:27;;;;;;;1999.90;999.90;;;;;;;17.62;45.22;94692.50;10385033;28;20282;-78
2024/02/27 14:26:28;;;;;;;1999.90;999.90;;;;;;;17.15;46.52;94684.91;10369927;28;20125;-78
2024/02/27 14:31:31;;;;;;;1999.90;999.90;;;;;;;17.14;47.42;94689.56;10396028;28;20021;-77
2024/02/27 14:36:34;;;;;;;1999.90;999.90;;;;;;;17.15;47.01;94695.78;10375098;28;20090;-80
2024/02/27 14:41:35;;;;;;;1999.90;999.90;;;;;;;17.38;46.83;94693.75;10416002;28;20033;-79
2024/02/27 14:46:35;;;;;;;1999.90;999.90;;;;;;;17.25;46.77;94688.13;10376844;28;20020;-78
2024/02/27 14:51:39;;;;;;;1999.90;999.90;;;;;;;17.13;47.57;94701.53;10397559;28;20056;-76
2024/02/27 14:56:43;;;;;;;1999.90;999.90;;;;;;;17.08;48.23;94696.25;10386027;28;20671;-81
2024/02/27 15:01:45;;;;;;;1999.90;999.90;;;;;;;17.13;48.57;94698.00;10406284;28;20394;-77
2024/02/27 15:06:46;;;;;;;1999.90;999.90;;;;;;;17.32;48.54;94700.47;10385923;28;20029;-82
2024/02/27 15:11:48;;;;;;;1999.90;999.90;;;;;;;17.36;47.83;94704.16;10423093;28;20029;-80
2024/02/27 15:16:48;;;;;;;1999.90;999.90;;;;;;;17.27;47.59;94708.75;10397516;28;20029;-81
2024/02/27 15:21:49;;;;;;;1999.90;999.90;;;;;;;17.21;48.75;94706.19;10415261;28;20384;-76
2024/02/27 15:26:49;;;;;;;1999.90;999.90;;;;;;;17.17;48.13;94716.06;10399252;28;20029;-80
2024/02/27 15:31:50;;;;;;;1999.90;999.90;;;;;;;17.06;47.64;94726.41;10394069;28;21067;-78
2024/02/27 15:36:50;;;;;;;1999.90;999.90;;;;;;;16.86;49.90;94746.75;10385442;28;20041;-76
2024/02/27 15:41:51;;;;;;;1999.90;999.90;;;;;;;16.08;56.18;94760.66;10375447;28;20351;-76
2024/02/27 15:46:52;;;;;;;1999.90;999.90;;;;;;;15.67;60.50;94767.78;10392373;28;20033;-76
2024/02/27 15:51:52;;;;;;;1999.90;999.90;;;;;;;15.33;63.49;94760.88;10412919;28;20054;-76
2024/02/27 15:56:52;;;;;;;1999.90;999.90;;;;;;;15.11;65.72;94771.63;10386198;28;20028;-76
2024/02/27 16:01:53;;;;;;;1999.90;999.90;;;;;;;15.10;65.65;94784.38;10385291;28;20310;-77
2024/02/27 16:07:20;;;;;;;1999.90;999.90;;;;;;;14.94;66.34;94780.34;10398793;28;20840;-77
2024/02/27 16:12:20;;;;;;;1999.90;999.90;;;;;;;14.90;64.67;94792.88;10392540;28;20562;-78
2024/02/27 16:17:20;;;;;;;1999.90;999.90;;;;;;;14.85;64.53;94788.38;10392898;28;20059;-78
2024/02/27 16:22:21;;;;;;;1999.90;999.90;;;;;;;14.80;63.64;94778.41;10388583;28;20041;-77
2024/02/27 16:27:21;;;;;;;1999.90;999.90;;;;;;;14.80;60.54;94789.25;10390748;28;20382;-78
2024/02/27 16:32:22;;;;;;;1999.90;999.90;;;;;;;14.59;60.42;94796.09;10402728;28;20061;-78
2024/02/27 16:37:24;;;;;;;1999.90;999.90;;;;;;;14.51;60.33;94797.56;10411990;28;20054;-80
2024/02/27 16:42:25;;;;;;;1999.90;999.90;;;;;;;14.44;59.18;94806.09;10377848;28;20387;-76
2024/02/27 16:47:27;;;;;;;1999.90;999.90;;;;;;;14.39;58.71;94798.03;10406194;28;20021;-81
2024/02/27 16:52:28;;;;;;;1999.90;999.90;;;;;;;14.38;57.10;94807.25;10404266;28;21014;-76
2024/02/27 16:57:37;;;;;;;1999.90;999.90;;;;;;;14.49;55.84;94811.38;10428777;28;20383;-80
2024/02/27 17:02:37;;;;;;;1999.90;999.90;;;;;;;14.25;55.69;94819.63;10400231;28;20033;-76
2024/02/27 17:07:37;;;;;;;1999.90;999.90;;;;;;;14.32;55.36;94821.97;10373858;28;20028;-76
2024/02/27 17:12:38;;;;;;;1999.90;999.90;;;;;;;14.34;55.10;94830.56;10400785;28;20268;-75
2024/02/27 17:17:39;;;;;;;1999.90;999.90;;;;;;;14.17;55.42;94831.88;10404046;28;20275;-81
2024/02/27 17:22:39;;;;;;;1999.90;999.90;;;;;;;14.31;54.87;94831.94;10402902;28;20032;-79
2024/02/27 17:27:40;;;;;;;1999.90;999.90;;;;;;;14.31;53.01;94841.97;10398625;28;20069;-73
2024/02/27 17:32:40;;;;;;;1999.90;999.90;;;;;;;14.42;53.18;94846.13;10398175;28;20025;-81
2024/02/27 17:37:41;;;;;;;1999.90;999.90;;;;;;;14.37;54.48;94854.31;10387228;28;20825;-82
2024/02/27 17:42:41;;;;;;;1999.90;999.90;;;;;;;14.21;53.09;94871.88;10396181;28;20295;-82
2024/02/27 17:47:41;;;;;;;1999.90;999.90;;;;;;;14.16;51.78;94865.44;10396673;28;20485;-73
2024/02/27 17:52:42;;;;;;;1999.90;999.90;;;;;;;14.14;51.18;94880.34;10391359;28;20446;-78
2024/02/27 17:57:42;;;;;;;1999.90;999.90;;;;;;;14.25;50.53;94878.31;10409137;22;20050;-77
2024/02/27 18:02:42;;;;;;;1999.90;999.90;;;;;;;14.11;52.21;94881.72;10429139;28;20280;-79
2024/02/27 18:07:43;;;;;;;1999.90;999.90;;;;;;;14.10;52.86;94882.00;10409737;28;20063;-79
2024/02/27 18:12:44;;;;;;;1999.90;999.90;;;;;;;14.06;53.77;94881.00;10387545;28;20029;-79
2024/02/27 18:17:47;;;;;;;1999.90;999.90;;;;;;;13.89;53.71;94889.59;10411223;28;20029;-81
2024/02/27 18:22:51;;;;;;;1999.90;999.90;;;;;;;13.75;55.01;94892.19;10414969;28;20083;-81
2024/02/27 18:27:51;;;;;;;1999.90;999.90;;;;;;;13.68;56.69;94895.25;10410706;28;20083;-79
2024/02/27 18:32:53;;;;;;;1999.90;999.90;;;;;;;13.75;57.19;94892.19;10392579;28;20048;-79
2024/02/27 18:37:54;;;;;;;1999.90;999.90;;;;;;;13.65;59.91;94899.31;10394225;28;20723;-80
2024/02/27 18:42:58;;;;;;;1999.90;999.90;;;;;;;13.61;61.51;94902.91;10390835;28;20036;-81
2024/02/27 18:47:58;;;;;;;1999.90;999.90;;;;;;;13.19;67.84;94907.91;10374040;28;20042;-77
2024/02/27 18:52:59;;;;;;;1999.90;999.90;;;;;;;12.94;73.13;94908.94;10405456;28;20051;-79
2024/02/27 18:57:59;;;;;;;1999.90;999.90;;;;;;;12.92;74.26;94909.22;10400814;28;20057;-76
2024/02/27 19:02:59;;;;;;;1999.90;999.90;;;;;;;12.69;76.74;94918.84;10401554;28;20051;-84
2024/02/27 19:08:00;;;;;;;1999.90;999.90;;;;;;;12.52;79.23;94932.72;10418536;28;20032;-76
2024/02/27 19:13:02;;;;;;;1999.90;999.90;;;;;;;12.38;82.12;94927.16;10383718;28;20059;-77
2024/02/27 19:18:03;;;;;;;1999.90;999.90;;;;;;;12.16;85.68;94937.53;10387087;28;20030;-78
2024/02/27 19:23:03;;;;;;;1999.90;999.90;;;;;;;12.31;86.96;94932.06;10378232;28;20060;-83
2024/02/27 19:28:04;;;;;;;1999.90;999.90;;;;;;;12.09;92.29;94932.44;10374204;28;20036;-84
2024/02/27 19:33:04;;;;;;;1999.90;999.90;;;;;;;11.90;95.73;94940.31;10374353;28;20034;-77
2024/02/27 19:38:04;;;;;;;1999.90;999.90;;;;;;;11.89;97.05;94949.47;10375139;28;20022;-77
2024/02/27 19:43:05;;;;;;;1999.90;999.90;;;;;;;11.93;97.34;94958.59;10377510;28;20308;-76
2024/02/27 19:48:07;;;;;;;1999.90;999.90;;;;;;;11.94;95.96;94966.47;10390933;28;21025;-77
2024/02/27 19:53:07;;;;;;;1999.90;999.90;;;;;;;11.78;96.29;94962.97;10387985;28;20289;-78
2024/02/27 19:58:08;;;;;;;1999.90;999.90;;;;;;;11.78;96.02;94951.41;10396670;28;20060;-85
2024/02/27 20:03:08;;;;;;;1999.90;999.90;;;;;;;11.79;96.64;94963.78;10394994;28;20276;-80
2024/02/27 20:08:08;;;;;;;1999.90;999.90;;;;;;;11.75;95.48;94971.63;10396526;28;20187;-77
2024/02/27 20:13:09;;;;;;;1999.90;999.90;;;;;;;11.63;96.48;94971.13;10382179;28;20280;-77
2024/02/27 20:18:09;;;;;;;1999.90;999.90;;;;;;;11.44;99.34;94965.50;10367965;28;20856;-76
2024/02/27 20:23:10;;;;;;;1999.90;999.90;;;;;;;11.19;100.00;94977.13;10377963;28;20026;-77
2024/02/27 20:28:10;;;;;;;1999.90;999.90;;;;;;;11.11;100.00;94976.59;10371693;28;20029;-78
2024/02/27 20:33:12;;;;;;;1999.90;999.90;;;;;;;11.13;100.00;94978.22;10386434;28;20480;-78
2024/02/27 20:38:16;;;;;;;1999.90;999.90;;;;;;;11.01;100.00;94981.97;10365920;28;20029;-79
2024/02/27 20:43:16;;;;;;;1999.90;999.90;;;;;;;10.92;100.00;94992.44;10375285;28;20100;-79
2024/02/27 20:48:17;;;;;;;1999.90;999.90;;;;;;;10.85;100.00;94981.16;10386217;28;20063;-77
2024/02/27 20:53:17;;;;;;;1999.90;999.90;;;;;;;10.83;100.00;94980.63;10385696;28;20325;-78
2024/02/27 20:58:17;;;;;;;1999.90;999.90;;;;;;;10.75;100.00;94983.84;10396546;28;20308;-78
2024/02/27 21:03:18;;;;;;;1999.90;999.90;;;;;;;10.67;100.00;94992.44;10395946;28;20455;-77
2024/02/27 21:08:18;;;;;;;1999.90;999.90;;;;;;;10.68;100.00;94988.69;10396480;28;20355;-77
2024/02/27 21:13:18;;;;;;;1999.90;999.90;;;;;;;10.61;100.00;94988.94;10380970;28;20399;-78
2024/02/27 21:18:19;;;;;;;1999.90;999.90;;;;;;;10.48;100.00;94992.13;10384767;28;20068;-78
2024/02/27 21:23:19;;;;;;;1999.90;999.90;;;;;;;10.39;100.00;94992.66;10372286;28;20273;-76
2024/02/27 21:28:20;;;;;;;1999.90;999.90;;;;;;;10.34;100.00;94987.28;10385153;28;20033;-83
2024/02/27 21:33:20;;;;;;;1999.90;999.90;;;;;;;10.17;100.00;94997.41;10397767;28;20052;-80
2024/02/27 21:38:20;;;;;;;1999.90;999.90;;;;;;;10.16;100.00;94998.47;10397033;28;20040;-78
2024/02/27 21:43:21;;;;;;;1999.90;999.90;;;;;;;9.95;100.00;95003.78;10401379;28;20021;-80
2024/02/27 21:48:21;;;;;;;1999.90;999.90;;;;;;;9.83;100.00;95006.66;10407121;28;20765;-82
2024/02/27 21:53:23;;;;;;;1999.90;999.90;;;;;;;9.72;100.00;95010.38;10406956;28;20033;-85
2024/02/27 21:58:23;;;;;;;1999.90;999.90;;;;;;;9.80;100.00;95017.13;10406020;28;20144;-81